Aérodrome :
LOGIN :

S'inscrire | Disclaimer

   EN    FR    IT 

 










Légende :    VFR   VFR Marginal   IFR   IFR Intensif   IFR Très Intensif
Visi : 
Plafond : 
>= 8 km
>= 3000ft
5 à 8 km
1000 à 3000 ft
1500m à 5 km
500 à 1000 ft
800 à 1500m
200 à 500 ft
< 800m
< 200 ft
Symboles :   Orages  Brouillard  Fortes neiges  Fortes précipitations  Vent > 20 kt
SIGMETs :   Divers  Orages  Givrage  Turbulence  Onde Orograph.  Cendres Volcan.







- Altitude de l'aérodrome : 479 ft
- Code IATA : DOL
- Voir les cartes d'approche


LFRG - Deauville

DERNIER METAR :
  • 211030Z AUTO 12007KT 070V230 CAVOK 22/11 Q1012 NOSIG

METARs EXPIRÉS :
  • 211000Z AUTO VRB07KT CAVOK 21/11 Q1012 NOSIG
  • 210930Z AUTO VRB05KT CAVOK 20/10 Q1012 NOSIG
  • 210900Z AUTO VRB03KT CAVOK 19/09 Q1013 NOSIG
  • 210830Z AUTO 13006KT 040V190 CAVOK 17/07 Q1013 NOSIG
  • 210800Z AUTO 12006KT 060V200 CAVOK 16/06 Q1013 NOSIG

TAF TAF LFRG
Valide du 21 à 09h jusqu'au 21 à 18h UTC


210800Z 2109/2118 12010KT CAVOK
TEMPO 2115/2118 5000 SHRA SCT060CB
PROB30
TEMPO 2116/2118 17015G30KT 3000 TSRA BKN050CB
ATIS : +33 2 31 65 65 36
Pas de NOTAMs connus pour ce terrain.



MET'MAP, la Météo Aéronautique d'un coup d'oeil ! - Copyright ORBIFLY Décembre 2007 - Disclaimer

ORBIFLY MET'MAP TEAM :

Programmation & Développement : Alexandra Zaïnal
Conception & Développement : Baudouin d'Aumeries
Co-Programmation & Développement : Marc-Olivier Méhu
Soutien technique & logistique : Manuel Goepfert

Contact : metmap@orbifly.com




SOURCES & CREDITS :

   NOAA